createdAt,value
2018-09-26T00:00:43.874Z,102081.00
2018-09-26T00:03:20.095Z,102080.74
2018-09-26T00:05:48.877Z,102089.00
2018-09-26T00:08:17.683Z,102091.27
2018-09-26T00:10:46.252Z,102090.42
2018-09-26T00:13:14.789Z,102088.30
2018-09-26T00:15:43.198Z,102077.91
2018-09-26T00:18:11.626Z,102078.22
2018-09-26T00:20:40.088Z,102077.10
2018-09-26T00:23:08.638Z,102082.69
2018-09-26T00:25:37.050Z,102077.95
2018-09-26T00:28:05.821Z,102077.95
2018-09-26T00:30:34.232Z,102072.56
2018-09-26T00:33:03.140Z,102071.91
2018-09-26T00:35:31.513Z,102068.55
2018-09-26T00:38:00.032Z,102077.41
2018-09-26T00:40:28.434Z,102076.95
2018-09-26T00:42:57.125Z,102072.56
2018-09-26T00:45:25.877Z,102074.64
2018-09-26T00:47:54.302Z,102080.09
2018-09-26T00:50:22.697Z,102081.83
2018-09-26T00:52:51.129Z,102076.28
2018-09-26T00:55:19.570Z,102070.23
2018-09-26T00:57:48.045Z,102059.48
2018-09-26T01:00:16.985Z,102065.66
2018-09-26T01:02:45.421Z,102061.39
2018-09-26T01:05:14.690Z,102065.97
2018-09-26T01:07:43.133Z,102065.97
2018-09-26T01:10:11.878Z,102055.19
2018-09-26T01:12:40.562Z,102049.61
2018-09-26T01:15:09.288Z,102049.69
2018-09-26T01:17:37.794Z,102050.88
2018-09-26T01:20:06.632Z,102048.69
2018-09-26T01:22:35.098Z,102040.91
2018-09-26T01:25:03.906Z,102041.45
2018-09-26T01:27:33.994Z,102035.56
2018-09-26T01:30:04.106Z,102035.75
2018-09-26T01:32:32.893Z,102021.39
2018-09-26T01:35:01.925Z,102026.09
2018-09-26T01:37:30.751Z,102008.56
2018-09-26T01:39:59.790Z,102004.91
2018-09-26T01:42:28.769Z,102001.95
2018-09-26T01:44:57.347Z,101996.45
2018-09-26T01:47:26.222Z,101995.64
2018-09-26T01:49:54.769Z,101997.22
2018-09-26T01:52:23.510Z,101991.33
2018-09-26T01:54:52.052Z,101983.82
2018-09-26T01:57:20.611Z,101975.97
2018-09-26T01:59:49.120Z,101982.86
2018-09-26T02:02:17.829Z,101973.97
2018-09-26T02:04:46.288Z,101981.05
2018-09-26T02:07:15.068Z,101985.62
2018-09-26T02:09:43.732Z,101980.27
2018-09-26T02:12:12.145Z,101986.30
2018-09-26T02:14:41.013Z,101986.18
2018-09-26T02:17:09.667Z,101970.61
2018-09-26T02:19:38.541Z,102000.83
2018-09-26T02:22:07.316Z,102007.05
2018-09-26T02:24:36.092Z,102012.39
2018-09-26T02:27:04.859Z,102007.03
2018-09-26T02:29:33.377Z,101997.63
2018-09-26T02:32:02.602Z,102002.52
2018-09-26T02:34:31.046Z,102005.37
2018-09-26T02:37:00.023Z,102009.75
2018-09-26T02:39:28.917Z,102015.98
2018-09-26T02:41:58.033Z,102008.69
2018-09-26T02:44:26.474Z,102014.61
2018-09-26T02:46:54.910Z,102012.73
2018-09-26T02:49:23.373Z,102006.97
2018-09-26T02:51:51.777Z,101992.53
2018-09-26T02:54:20.229Z,101989.19
2018-09-26T02:56:48.958Z,101990.56
2018-09-26T02:59:17.401Z,102000.83
2018-09-26T03:01:45.794Z,101996.58
2018-09-26T03:04:14.252Z,102005.71
2018-09-26T03:06:43.038Z,102004.89
2018-09-26T03:09:11.839Z,102000.01
2018-09-26T03:11:40.755Z,102003.20
2018-09-26T03:14:09.466Z,101995.84
2018-09-26T03:16:38.109Z,101991.30
2018-09-26T03:19:07.305Z,101994.66
2018-09-26T03:21:36.090Z,101990.95
2018-09-26T03:24:04.659Z,101972.83
2018-09-26T03:26:33.045Z,101968.27
2018-09-26T03:29:01.470Z,101959.37
2018-09-26T03:31:29.881Z,101964.89
2018-09-26T03:33:58.333Z,101962.16
2018-09-26T03:36:26.743Z,101979.50
2018-09-26T03:38:55.199Z,101988.11
2018-09-26T03:41:23.679Z,101987.10
2018-09-26T03:43:52.077Z,101983.59
2018-09-26T03:46:20.517Z,101994.88
2018-09-26T03:48:48.929Z,101991.37
2018-09-26T03:51:17.893Z,101985.70
2018-09-26T03:53:46.633Z,101992.44
2018-09-26T03:56:15.340Z,101986.60
2018-09-26T03:58:43.809Z,101990.79
2018-09-26T04:01:12.758Z,101985.78
2018-09-26T04:03:41.581Z,101974.01
2018-09-26T04:06:10.693Z,101965.62
2018-09-26T04:08:39.717Z,101971.84
2018-09-26T04:11:08.233Z,101964.27
2018-09-26T04:13:37.002Z,101967.62
2018-09-26T04:16:05.506Z,101970.68
2018-09-26T04:18:33.909Z,101982.41
2018-09-26T04:21:02.685Z,101981.08
2018-09-26T04:23:31.202Z,101973.51
2018-09-26T04:25:59.637Z,101990.48
2018-09-26T04:28:28.028Z,101995.34
2018-09-26T04:30:56.452Z,101994.36
2018-09-26T04:33:24.954Z,101996.52
2018-09-26T04:35:53.362Z,101996.02
2018-09-26T04:38:21.885Z,101992.50
2018-09-26T04:40:50.303Z,101991.83
2018-09-26T04:43:18.772Z,101998.91
2018-09-26T04:45:47.217Z,101994.36
2018-09-26T04:48:15.636Z,101988.31
2018-09-26T04:50:44.108Z,101986.95
2018-09-26T04:53:12.503Z,101994.84
2018-09-26T04:55:40.950Z,101999.54
2018-09-26T04:58:09.407Z,102000.91
2018-09-26T05:00:37.798Z,102003.09
2018-09-26T05:03:06.218Z,101997.55
2018-09-26T05:05:34.699Z,101994.88
2018-09-26T05:08:03.105Z,101998.25
2018-09-26T05:10:31.599Z,101993.19
2018-09-26T05:13:00.031Z,101994.70
2018-09-26T05:15:28.990Z,101996.39
2018-09-26T05:17:57.741Z,101996.70
2018-09-26T05:20:26.312Z,101992.84
2018-09-26T05:22:54.787Z,102001.09
2018-09-26T05:25:23.649Z,101995.86
2018-09-26T05:27:52.661Z,101995.53
2018-09-26T05:30:21.618Z,101994.84
2018-09-26T05:32:50.194Z,101994.16
2018-09-26T05:35:18.717Z,101988.97
2018-09-26T05:37:47.367Z,101987.27
2018-09-26T05:40:16.223Z,101986.70
2018-09-26T05:42:44.646Z,101994.95
2018-09-26T05:45:13.109Z,101987.50
2018-09-26T05:47:41.520Z,101981.96
2018-09-26T05:50:10.224Z,101978.74
2018-09-26T05:52:38.631Z,101979.55
2018-09-26T05:55:07.449Z,101981.72
2018-09-26T05:57:35.806Z,101982.91
2018-09-26T06:00:04.264Z,101983.20
2018-09-26T06:02:33.124Z,101989.74
2018-09-26T06:05:01.554Z,101988.88
2018-09-26T06:07:30.382Z,101987.52
2018-09-26T06:09:59.405Z,101993.38
2018-09-26T06:12:28.282Z,101992.81
2018-09-26T06:14:56.674Z,101986.70
2018-09-26T06:17:25.118Z,101988.83
2018-09-26T06:19:53.576Z,101986.94
2018-09-26T06:22:22.976Z,101989.41
2018-09-26T06:24:51.706Z,101976.55
2018-09-26T06:27:20.634Z,101975.70
2018-09-26T06:29:49.166Z,101980.66
2018-09-26T06:32:18.001Z,101977.53
2018-09-26T06:34:46.528Z,101981.37
2018-09-26T06:37:15.114Z,101991.45
2018-09-26T06:39:43.733Z,101987.05
2018-09-26T06:42:12.359Z,101988.56
2018-09-26T06:44:40.931Z,101990.97
2018-09-26T06:47:09.548Z,101997.64
2018-09-26T06:49:38.276Z,102004.29
2018-09-26T06:52:06.826Z,102001.23
2018-09-26T06:54:35.217Z,102000.82
2018-09-26T06:57:04.003Z,101996.14
2018-09-26T06:59:32.653Z,101994.77
2018-09-26T07:02:01.358Z,101992.31
2018-09-26T07:04:29.846Z,101995.64
2018-09-26T07:06:58.615Z,101999.20
2018-09-26T07:09:27.235Z,102005.51
2018-09-26T07:11:55.850Z,102002.57
2018-09-26T07:14:24.319Z,101998.23
2018-09-26T07:16:52.777Z,102002.20
2018-09-26T07:19:21.630Z,101990.50
2018-09-26T07:21:50.073Z,101988.20
2018-09-26T07:24:18.490Z,101991.95
2018-09-26T07:26:46.958Z,101983.55
2018-09-26T07:29:15.485Z,101982.87
2018-09-26T07:31:44.026Z,101982.29
2018-09-26T07:34:12.750Z,101994.25
2018-09-26T07:36:41.258Z,101990.58
2018-09-26T07:39:11.817Z,101985.92
2018-09-26T07:41:40.146Z,101989.34
2018-09-26T07:44:09.046Z,101988.24
2018-09-26T07:46:37.465Z,101986.67
2018-09-26T07:49:06.201Z,101992.31
2018-09-26T07:51:34.730Z,101991.41
2018-09-26T07:54:03.371Z,101989.30
2018-09-26T07:56:31.800Z,101993.53
2018-09-26T07:59:00.265Z,101990.05
2018-09-26T08:01:28.708Z,101992.31
2018-09-26T08:03:57.129Z,101992.20
2018-09-26T08:06:25.582Z,101996.11
2018-09-26T08:08:54.061Z,101988.59
2018-09-26T08:11:22.560Z,101995.71
2018-09-26T08:13:50.940Z,102001.25
2018-09-26T08:16:19.404Z,101999.89
2018-09-26T08:18:47.817Z,101999.67
2018-09-26T08:21:16.285Z,102005.20
2018-09-26T08:23:44.746Z,102004.16
2018-09-26T08:26:13.172Z,101992.03
2018-09-26T08:28:41.589Z,101989.51
2018-09-26T08:31:10.094Z,101989.49
2018-09-26T08:33:38.533Z,101994.28
2018-09-26T08:36:07.102Z,102000.81
2018-09-26T08:38:35.538Z,102002.17
2018-09-26T08:41:03.921Z,102006.81
2018-09-26T08:43:32.352Z,102006.66
2018-09-26T08:46:00.754Z,102012.01
2018-09-26T08:48:29.230Z,102009.09
2018-09-26T08:50:57.722Z,101998.03
2018-09-26T08:53:26.238Z,102002.82
2018-09-26T08:55:54.669Z,102003.48
2018-09-26T08:58:23.065Z,102001.26
2018-09-26T09:00:52.860Z,101997.28
2018-09-26T09:03:21.581Z,102002.94
2018-09-26T09:05:50.504Z,101996.02
2018-09-26T09:08:18.929Z,101996.86
2018-09-26T09:10:47.362Z,101992.63
2018-09-26T09:13:15.807Z,101991.23
2018-09-26T09:15:44.208Z,101987.25
2018-09-26T09:18:12.630Z,101986.91
2018-09-26T09:20:41.011Z,101983.39
2018-09-26T09:23:09.494Z,101985.55
2018-09-26T09:25:37.890Z,101986.00
2018-09-26T09:28:06.399Z,101981.42
2018-09-26T09:30:34.829Z,101976.50
2018-09-26T09:33:03.262Z,101980.34
2018-09-26T09:35:31.741Z,101977.20
2018-09-26T09:38:00.174Z,101978.20
2018-09-26T09:40:28.571Z,101979.64
2018-09-26T09:42:56.977Z,101976.45
2018-09-26T09:45:25.350Z,101971.48
2018-09-26T09:47:53.773Z,101976.33
2018-09-26T09:50:22.373Z,101978.83
2018-09-26T09:52:50.728Z,101974.66
2018-09-26T09:55:19.174Z,101976.67
2018-09-26T09:57:48.613Z,101969.91
2018-09-26T10:00:17.057Z,101975.50
2018-09-26T10:02:45.569Z,101976.55
2018-09-26T10:05:13.937Z,101976.64
2018-09-26T10:07:42.333Z,101968.47
2018-09-26T10:10:10.729Z,101967.77
2018-09-26T10:12:39.147Z,101966.34
2018-09-26T10:15:07.590Z,101963.93
2018-09-26T10:17:36.063Z,101973.05
2018-09-26T10:20:04.529Z,101963.19
2018-09-26T10:22:32.927Z,101965.13
2018-09-26T10:25:01.334Z,101969.37
2018-09-26T10:27:29.737Z,101963.66
2018-09-26T10:29:58.156Z,101966.10
2018-09-26T10:32:26.614Z,101969.81
2018-09-26T10:34:55.445Z,101962.64
2018-09-26T10:37:23.866Z,101967.34
2018-09-26T10:39:52.271Z,101969.50
2018-09-26T10:42:20.766Z,101968.90
2018-09-26T10:44:49.166Z,101970.86
2018-09-26T10:47:17.567Z,101965.64
2018-09-26T10:49:45.961Z,101964.48
2018-09-26T10:52:14.428Z,101964.02
2018-09-26T10:54:42.837Z,101961.95
2018-09-26T10:57:11.217Z,101962.69
2018-09-26T10:59:39.597Z,101959.27
2018-09-26T11:02:08.033Z,101956.44
2018-09-26T11:04:36.427Z,101960.93
2018-09-26T11:07:04.846Z,101956.70
2018-09-26T11:09:33.281Z,101958.23
2018-09-26T11:12:01.717Z,101959.14
2018-09-26T11:14:30.140Z,101955.68
2018-09-26T11:16:58.554Z,101950.41
2018-09-26T11:19:27.000Z,101960.98
2018-09-26T11:21:55.454Z,101955.95
2018-09-26T11:24:23.976Z,101956.03
2018-09-26T11:26:52.377Z,101951.94
2018-09-26T11:29:20.769Z,101948.20
2018-09-26T11:31:49.165Z,101948.94
2018-09-26T11:34:17.642Z,101953.36
2018-09-26T11:36:46.026Z,101946.25
2018-09-26T11:39:14.483Z,101945.42
2018-09-26T11:41:42.882Z,101938.95
2018-09-26T11:44:11.325Z,101930.10
2018-09-26T11:46:39.805Z,101925.51
2018-09-26T11:49:08.235Z,101929.91
2018-09-26T11:51:36.707Z,101924.05
2018-09-26T11:54:05.517Z,101917.99
2018-09-26T11:56:33.987Z,101911.25
2018-09-26T11:59:02.493Z,101909.61
2018-09-26T12:01:30.912Z,101905.53
2018-09-26T12:03:59.390Z,101908.31
2018-09-26T12:06:27.789Z,101900.78
2018-09-26T12:08:56.217Z,101900.97
2018-09-26T12:11:24.649Z,101895.28
2018-09-26T12:13:53.130Z,101889.95
2018-09-26T12:16:21.665Z,101891.22
2018-09-26T12:18:50.061Z,101890.57
2018-09-26T12:21:30.252Z,101874.88
2018-09-26T12:23:47.093Z,101875.34
2018-09-26T12:26:15.517Z,101872.28
2018-09-26T12:28:44.034Z,101865.93
2018-09-26T12:31:12.459Z,101864.47
2018-09-26T12:33:40.892Z,101866.81
2018-09-26T12:36:09.400Z,101867.06
2018-09-26T12:38:37.805Z,101867.97
2018-09-26T12:41:06.322Z,101860.80
2018-09-26T12:43:34.851Z,101859.70
2018-09-26T12:46:03.275Z,101853.86
2018-09-26T12:48:31.789Z,101856.66
2018-09-26T12:51:00.203Z,101851.56
2018-09-26T12:53:28.757Z,101854.40
2018-09-26T12:55:57.166Z,101843.44
2018-09-26T12:58:25.911Z,101846.34
2018-09-26T13:00:54.294Z,101845.28
2018-09-26T13:03:22.739Z,101851.91
2018-09-26T13:05:51.381Z,101847.80
2018-09-26T13:08:19.823Z,101846.61
2018-09-26T13:10:48.312Z,101850.37
2018-09-26T13:13:16.712Z,101846.91
2018-09-26T13:15:45.174Z,101841.90
2018-09-26T13:18:13.889Z,101846.36
2018-09-26T13:20:42.274Z,101843.95
2018-09-26T13:23:10.672Z,101842.34
2018-09-26T13:25:39.176Z,101831.85
2018-09-26T13:28:07.646Z,101830.97
2018-09-26T13:30:36.042Z,101823.83
2018-09-26T13:33:04.451Z,101827.67
2018-09-26T13:35:32.902Z,101825.61
2018-09-26T13:38:01.351Z,101827.78
2018-09-26T13:40:30.074Z,101829.41
2018-09-26T13:42:58.480Z,101822.33
2018-09-26T13:45:26.886Z,101824.22
2018-09-26T13:47:55.318Z,101822.17
2018-09-26T13:50:23.797Z,101813.34
2018-09-26T13:52:52.152Z,101808.51
2018-09-26T13:55:20.536Z,101812.13
2018-09-26T13:57:49.193Z,101809.08
2018-09-26T14:00:18.196Z,101806.45
2018-09-26T14:02:47.454Z,101804.06
2018-09-26T14:05:16.654Z,101800.76
2018-09-26T14:07:45.036Z,101798.08
2018-09-26T14:10:13.510Z,101793.32
2018-09-26T14:12:41.966Z,101787.88
2018-09-26T14:15:17.087Z,101785.70
2018-09-26T14:17:46.426Z,101782.78
2018-09-26T14:20:31.292Z,101781.07
2018-09-26T14:22:59.841Z,101774.70
2018-09-26T14:25:28.337Z,101775.18
2018-09-26T14:27:56.815Z,101771.66
2018-09-26T14:30:25.615Z,101766.88
2018-09-26T14:32:54.243Z,101766.34
2018-09-26T14:35:22.826Z,101766.73
2018-09-26T14:37:51.314Z,101756.08
2018-09-26T14:40:19.836Z,101754.84
2018-09-26T14:42:48.337Z,101761.26
2018-09-26T14:45:16.930Z,101756.09
2018-09-26T14:47:45.391Z,101753.63
2018-09-26T14:50:14.009Z,101750.06
2018-09-26T14:52:42.684Z,101751.66
2018-09-26T14:55:11.491Z,101748.66
2018-09-26T14:57:40.026Z,101749.75
2018-09-26T15:00:09.475Z,101743.89
2018-09-26T15:02:38.395Z,101738.09
2018-09-26T15:05:07.439Z,101735.45
2018-09-26T15:07:36.057Z,101736.23
2018-09-26T15:10:04.659Z,101735.77
2018-09-26T15:12:33.489Z,101735.53
2018-09-26T15:15:02.540Z,101735.61
2018-09-26T15:17:31.070Z,101733.93
2018-09-26T15:19:59.782Z,101734.42
2018-09-26T15:22:28.318Z,101735.34
2018-09-26T15:24:56.850Z,101729.75
2018-09-26T15:27:25.406Z,101731.25
2018-09-26T15:29:53.974Z,101724.33
2018-09-26T15:32:22.582Z,101728.23
2018-09-26T15:34:51.163Z,101729.43
2018-09-26T15:37:19.710Z,101727.28
2018-09-26T15:39:48.293Z,101728.60
2018-09-26T15:42:17.002Z,101727.72
2018-09-26T15:44:45.466Z,101725.91
2018-09-26T15:47:14.061Z,101723.28
2018-09-26T15:49:42.583Z,101724.67
2018-09-26T15:52:11.267Z,101724.67
2018-09-26T15:54:39.767Z,101724.79
2018-09-26T15:57:08.593Z,101725.16
2018-09-26T15:59:37.190Z,101715.22
2018-09-26T16:02:05.809Z,101717.21
2018-09-26T16:04:37.989Z,101715.55
2018-09-26T16:07:06.433Z,101713.79
2018-09-26T16:09:34.975Z,101714.25
2018-09-26T16:12:03.459Z,101711.03
2018-09-26T16:14:31.854Z,101711.11
2018-09-26T16:17:00.300Z,101706.05
2018-09-26T16:19:28.818Z,101702.97
2018-09-26T16:21:57.650Z,101709.15
2018-09-26T16:24:26.488Z,101712.95
2018-09-26T16:26:54.926Z,101705.70
2018-09-26T16:29:23.357Z,101709.33
2018-09-26T16:31:51.789Z,101711.77
2018-09-26T16:34:20.274Z,101709.01
2018-09-26T16:36:48.657Z,101714.13
2018-09-26T16:39:17.232Z,101707.75
2018-09-26T16:41:45.573Z,101714.16
2018-09-26T16:44:14.008Z,101715.69
2018-09-26T16:46:42.429Z,101711.25
2018-09-26T16:49:10.913Z,101718.91
2018-09-26T16:51:39.367Z,101712.59
2018-09-26T16:54:07.859Z,101708.02
2018-09-26T16:56:36.358Z,101711.10
2018-09-26T16:59:04.761Z,101710.76
2018-09-26T17:01:33.258Z,101707.58
2018-09-26T17:04:01.664Z,101702.22
2018-09-26T17:06:30.114Z,101701.76
2018-09-26T17:08:58.538Z,101710.88
2018-09-26T17:11:26.987Z,101706.22
2018-09-26T17:13:55.423Z,101707.69
2018-09-26T17:16:23.940Z,101707.74
2018-09-26T17:18:52.345Z,101705.84
2018-09-26T17:21:21.087Z,101708.91
2018-09-26T17:23:49.635Z,101709.94
2018-09-26T17:26:18.160Z,101708.58
2018-09-26T17:28:46.672Z,101709.92
2018-09-26T17:31:15.668Z,101717.24
2018-09-26T17:33:44.457Z,101713.79
2018-09-26T17:36:12.986Z,101712.66
2018-09-26T17:38:42.106Z,101715.91
2018-09-26T17:41:10.507Z,101707.39
2018-09-26T17:43:39.022Z,101709.38
2018-09-26T17:46:09.852Z,101707.43
2018-09-26T17:48:44.665Z,101708.83
2018-09-26T17:51:14.076Z,101716.50
2018-09-26T17:53:44.523Z,101711.13
2018-09-26T17:56:12.978Z,101712.82
2018-09-26T17:58:41.530Z,101702.86
2018-09-26T18:01:10.006Z,101705.64
2018-09-26T18:03:38.498Z,101710.30
2018-09-26T18:06:06.986Z,101713.09
2018-09-26T18:08:35.477Z,101711.91
2018-09-26T18:11:03.861Z,101709.77
2018-09-26T18:13:32.368Z,101711.78
2018-09-26T18:16:00.730Z,101715.68
2018-09-26T18:18:29.281Z,101714.92
2018-09-26T18:20:57.728Z,101722.06
2018-09-26T18:23:26.251Z,101719.58
2018-09-26T18:25:54.643Z,101721.30
2018-09-26T18:28:23.081Z,101724.00
2018-09-26T18:30:51.649Z,101726.72
2018-09-26T18:33:20.137Z,101724.98
2018-09-26T18:35:48.638Z,101732.56
2018-09-26T18:38:17.119Z,101731.96
2018-09-26T18:40:45.564Z,101731.85
2018-09-26T18:43:14.181Z,101731.81
2018-09-26T18:45:46.616Z,101726.98
2018-09-26T18:48:16.345Z,101730.52
2018-09-26T18:50:44.834Z,101731.06
2018-09-26T18:53:13.288Z,101732.96
2018-09-26T18:55:41.958Z,101725.72
2018-09-26T18:58:10.393Z,101729.34
2018-09-26T19:00:40.538Z,101728.14
2018-09-26T19:03:09.131Z,101729.22
2018-09-26T19:05:40.001Z,101729.14
2018-09-26T19:08:08.844Z,101729.98
2018-09-26T19:10:37.325Z,101727.70
2018-09-26T19:13:05.833Z,101724.46
2018-09-26T19:15:34.253Z,101723.31
2018-09-26T19:18:02.820Z,101730.59
2018-09-26T19:20:32.081Z,101733.31
2018-09-26T19:23:00.588Z,101729.16
2018-09-26T19:25:29.500Z,101731.64
2018-09-26T19:28:00.181Z,101736.63
2018-09-26T19:30:31.491Z,101735.44
2018-09-26T19:33:04.304Z,101732.55
2018-09-26T19:35:47.115Z,101739.94
2018-09-26T19:38:26.430Z,101739.41
2018-09-26T19:41:00.918Z,101744.58
2018-09-26T19:43:32.531Z,101742.14
2018-09-26T19:46:02.099Z,101735.17
2018-09-26T19:48:33.864Z,101734.70
2018-09-26T19:51:09.271Z,101732.36
2018-09-26T19:56:21.189Z,101730.02
2018-09-26T19:59:01.378Z,101728.00
2018-09-26T20:01:35.479Z,101734.64
2018-09-26T20:04:13.940Z,101732.97
2018-09-26T20:06:43.138Z,101732.77
2018-09-26T20:09:14.288Z,101734.09
2018-09-26T20:11:48.648Z,101744.17
2018-09-26T20:14:19.281Z,101734.30
2018-09-26T20:16:51.616Z,101731.20
2018-09-26T20:19:21.230Z,101733.59
2018-09-26T20:21:50.264Z,101732.83
2018-09-26T20:24:24.368Z,101737.89
2018-09-26T20:26:52.878Z,101743.87
2018-09-26T20:29:21.376Z,101742.70
2018-09-26T20:31:49.783Z,101749.81
2018-09-26T20:34:18.220Z,101746.26
2018-09-26T20:39:37.185Z,101734.41
2018-09-26T20:44:51.814Z,101744.91
2018-09-26T20:47:21.486Z,101741.25
2018-09-26T20:49:52.896Z,101744.16
2018-09-26T20:52:23.221Z,101742.68
2018-09-26T20:54:53.388Z,101743.09
2018-09-26T20:57:47.516Z,101744.81
2018-09-26T21:00:16.137Z,101739.11
2018-09-26T21:03:00.995Z,101740.47
2018-09-26T21:05:29.711Z,101740.05
2018-09-26T21:08:14.452Z,101748.53
2018-09-26T21:11:04.210Z,101746.59
2018-09-26T21:16:35.142Z,101742.94
2018-09-26T21:19:03.961Z,101742.09
2018-09-26T21:24:44.565Z,101739.67
2018-09-26T21:33:03.420Z,101738.09
2018-09-26T21:35:36.761Z,101738.30
2018-09-26T21:38:18.168Z,101735.89
2018-09-26T21:40:53.302Z,101738.50
2018-09-26T21:43:25.883Z,101733.62
2018-09-26T21:46:00.731Z,101738.20
2018-09-26T21:48:31.716Z,101736.52
2018-09-26T21:51:01.241Z,101733.39
2018-09-26T21:53:35.707Z,101705.61
2018-09-26T21:56:04.310Z,101736.42
2018-09-26T21:58:32.829Z,101732.88
2018-09-26T22:01:12.835Z,101740.48
2018-09-26T22:04:03.410Z,101736.94
2018-09-26T22:12:30.014Z,101727.38
2018-09-26T22:15:06.326Z,101731.86
2018-09-26T22:26:16.136Z,101742.59
2018-09-26T22:28:44.530Z,101734.25
2018-09-26T22:31:28.743Z,101743.84
2018-09-26T22:33:57.227Z,101728.83
2018-09-26T22:36:25.617Z,101731.02
2018-09-26T22:38:54.002Z,101741.42
2018-09-26T22:41:22.437Z,101744.95
2018-09-26T22:43:50.862Z,101741.74
2018-09-26T22:46:19.301Z,101748.19
2018-09-26T22:48:47.745Z,101743.38
2018-09-26T22:51:16.646Z,101750.03
2018-09-26T22:53:45.025Z,101740.78
2018-09-26T22:56:13.437Z,101745.91
2018-09-26T22:58:41.884Z,101735.08
2018-09-26T23:01:10.506Z,101735.77
2018-09-26T23:03:38.975Z,101735.77
2018-09-26T23:06:07.464Z,101729.73
2018-09-26T23:08:36.220Z,101725.27
2018-09-26T23:11:04.669Z,101721.83
2018-09-26T23:13:33.075Z,101723.70
2018-09-26T23:16:01.625Z,101718.37
2018-09-26T23:18:30.012Z,101717.52
2018-09-26T23:20:58.452Z,101716.67
2018-09-26T23:23:26.850Z,101704.92
2018-09-26T23:25:55.285Z,101704.94
2018-09-26T23:28:23.677Z,101710.64
2018-09-26T23:30:52.105Z,101711.13
2018-09-26T23:33:20.553Z,101710.38
2018-09-26T23:35:49.048Z,101707.27
2018-09-26T23:38:17.466Z,101705.67
2018-09-26T23:40:45.929Z,101700.12
2018-09-26T23:43:14.366Z,101694.95
2018-09-26T23:45:42.781Z,101696.80
2018-09-26T23:48:11.178Z,101694.91
2018-09-26T23:50:39.649Z,101686.34
2018-09-26T23:53:08.224Z,101684.67
2018-09-26T23:55:36.626Z,101682.69
2018-09-26T23:58:05.033Z,101682.27
